sensor_id;sensor_type;location;lat;lon;timestamp;temperature;humidity
23452;DHT22;11898;51.130;6.780;2023-01-15T04:09:49;12.00;99.90
23452;DHT22;11898;51.130;6.780;2023-01-15T04:12:18;8.20;99.90
23452;DHT22;11898;51.130;6.780;2023-01-15T04:14:46;8.70;99.90
23452;DHT22;11898;51.130;6.780;2023-01-15T04:17:15;8.80;99.90
23452;DHT22;11898;51.130;6.780;2023-01-15T04:19:43;8.90;99.90
23452;DHT22;11898;51.130;6.780;2023-01-15T04:22:13;8.70;99.90
23452;DHT22;11898;51.130;6.780;2023-01-15T04:24:42;8.80;99.90
23452;DHT22;11898;51.130;6.780;2023-01-15T04:27:10;8.90;99.90
23452;DHT22;11898;51.130;6.780;2023-01-15T04:29:39;8.60;99.90
23452;DHT22;11898;51.130;6.780;2023-01-15T04:32:07;8.70;99.90
23452;DHT22;11898;51.130;6.780;2023-01-15T04:34:37;8.70;99.90
23452;DHT22;11898;51.130;6.780;2023-01-15T04:37:06;8.60;99.90
23452;DHT22;11898;51.130;6.780;2023-01-15T04:39:34;8.70;99.90
23452;DHT22;11898;51.130;6.780;2023-01-15T04:42:03;8.70;99.90
23452;DHT22;11898;51.130;6.780;2023-01-15T04:44:49;8.70;99.90
23452;DHT22;11898;51.130;6.780;2023-01-15T04:47:18;8.70;99.90
23452;DHT22;11898;51.130;6.780;2023-01-15T04:49:46;8.80;99.90
23452;DHT22;11898;51.130;6.780;2023-01-15T04:52:15;8.80;99.90
23452;DHT22;11898;51.130;6.780;2023-01-15T04:54:44;8.80;99.90
23452;DHT22;11898;51.130;6.780;2023-01-15T04:57:12;8.80;99.90
23452;DHT22;11898;51.130;6.780;2023-01-15T04:59:41;8.70;99.90
23452;DHT22;11898;51.130;6.780;2023-01-15T05:02:10;8.70;99.90
23452;DHT22;11898;51.130;6.780;2023-01-15T05:04:40;8.70;99.90
23452;DHT22;11898;51.130;6.780;2023-01-15T05:07:09;8.70;99.90
23452;DHT22;11898;51.130;6.780;2023-01-15T05:09:38;8.70;99.90
23452;DHT22;11898;51.130;6.780;2023-01-15T05:12:07;8.80;99.90
23452;DHT22;11898;51.130;6.780;2023-01-15T05:14:35;8.80;99.90
23452;DHT22;11898;51.130;6.780;2023-01-15T05:17:04;8.70;99.90
23452;DHT22;11898;51.130;6.780;2023-01-15T05:19:33;8.70;99.90
23452;DHT22;11898;51.130;6.780;2023-01-15T05:22:01;8.70;99.90
23452;DHT22;11898;51.130;6.780;2023-01-15T05:24:30;8.80;99.90
23452;DHT22;11898;51.130;6.780;2023-01-15T05:26:59;8.70;99.90
23452;DHT22;11898;51.130;6.780;2023-01-15T05:29:27;8.70;99.90
23452;DHT22;11898;51.130;6.780;2023-01-15T05:31:56;8.80;99.90
23452;DHT22;11898;51.130;6.780;2023-01-15T05:34:25;8.80;99.90
23452;DHT22;11898;51.130;6.780;2023-01-15T05:36:53;8.70;99.90
23452;DHT22;11898;51.130;6.780;2023-01-15T05:39:22;8.70;99.90
23452;DHT22;11898;51.130;6.780;2023-01-15T05:41:51;8.80;99.90
23452;DHT22;11898;51.130;6.780;2023-01-15T05:44:23;8.70;99.90
23452;DHT22;11898;51.130;6.780;2023-01-15T05:46:54;8.70;99.90
23452;DHT22;11898;51.130;6.780;2023-01-15T05:49:24;8.70;99.90
23452;DHT22;11898;51.130;6.780;2023-01-15T05:51:54;8.70;99.90
23452;DHT22;11898;51.130;6.780;2023-01-15T05:54:25;8.70;99.90
23452;DHT22;11898;51.130;6.780;2023-01-15T05:56:54;8.60;99.90
23452;DHT22;11898;51.130;6.780;2023-01-15T05:59:25;8.60;99.90
23452;DHT22;11898;51.130;6.780;2023-01-15T06:01:54;8.60;99.90
23452;DHT22;11898;51.130;6.780;2023-01-15T06:04:23;8.60;99.90
23452;DHT22;11898;51.130;6.780;2023-01-15T06:06:53;8.70;99.90
23452;DHT22;11898;51.130;6.780;2023-01-15T06:09:22;8.60;99.90
23452;DHT22;11898;51.130;6.780;2023-01-15T06:11:51;8.70;99.90
23452;DHT22;11898;51.130;6.780;2023-01-15T06:14:20;8.70;99.90
23452;DHT22;11898;51.130;6.780;2023-01-15T06:16:50;8.60;99.90
23452;DHT22;11898;51.130;6.780;2023-01-15T06:19:19;8.50;99.90
23452;DHT22;11898;51.130;6.780;2023-01-15T06:21:48;8.70;99.90
23452;DHT22;11898;51.130;6.780;2023-01-15T06:24:16;8.70;99.90
23452;DHT22;11898;51.130;6.780;2023-01-15T06:26:47;8.70;99.90
23452;DHT22;11898;51.130;6.780;2023-01-15T06:29:16;8.70;99.90
23452;DHT22;11898;51.130;6.780;2023-01-15T06:31:47;8.60;99.90
23452;DHT22;11898;51.130;6.780;2023-01-15T06:34:16;8.60;99.90
23452;DHT22;11898;51.130;6.780;2023-01-15T06:36:44;8.60;99.90
23452;DHT22;11898;51.130;6.780;2023-01-15T06:39:13;8.50;99.90
23452;DHT22;11898;51.130;6.780;2023-01-15T06:41:42;8.60;99.90
23452;DHT22;11898;51.130;6.780;2023-01-15T06:44:28;8.60;99.90
23452;DHT22;11898;51.130;6.780;2023-01-15T06:47:16;8.50;99.90
23452;DHT22;11898;51.130;6.780;2023-01-15T06:49:55;8.60;99.90
23452;DHT22;11898;51.130;6.780;2023-01-15T06:52:26;8.50;99.90
23452;DHT22;11898;51.130;6.780;2023-01-15T06:54:55;8.50;99.90
23452;DHT22;11898;51.130;6.780;2023-01-15T06:57:23;8.50;99.90
23452;DHT22;11898;51.130;6.780;2023-01-15T08:07:40;8.40;99.90
23452;DHT22;11898;51.130;6.780;2023-01-15T08:10:10;8.60;99.90
23452;DHT22;11898;51.130;6.780;2023-01-15T08:12:39;8.50;99.90
23452;DHT22;11898;51.130;6.780;2023-01-15T08:15:27;8.70;99.90
23452;DHT22;11898;51.130;6.780;2023-01-15T08:17:57;8.60;99.90
23452;DHT22;11898;51.130;6.780;2023-01-15T08:20:25;8.60;99.90
23452;DHT22;11898;51.130;6.780;2023-01-15T08:22:54;8.60;99.90
23452;DHT22;11898;51.130;6.780;2023-01-15T08:25:24;8.60;99.90
23452;DHT22;11898;51.130;6.780;2023-01-15T08:27:53;8.60;99.90
23452;DHT22;11898;51.130;6.780;2023-01-15T08:30:24;8.60;99.90
23452;DHT22;11898;51.130;6.780;2023-01-15T08:32:57;8.50;99.90
23452;DHT22;11898;51.130;6.780;2023-01-15T08:35:24;8.50;99.90
23452;DHT22;11898;51.130;6.780;2023-01-15T08:37:53;8.50;99.90
23452;DHT22;11898;51.130;6.780;2023-01-15T08:40:22;8.50;99.90
23452;DHT22;11898;51.130;6.780;2023-01-15T08:42:50;8.50;99.90
23452;DHT22;11898;51.130;6.780;2023-01-15T08:45:19;8.50;99.90
23452;DHT22;11898;51.130;6.780;2023-01-15T08:47:47;8.50;99.90
23452;DHT22;11898;51.130;6.780;2023-01-15T08:50:16;8.50;99.90
23452;DHT22;11898;51.130;6.780;2023-01-15T08:52:45;8.50;99.90
23452;DHT22;11898;51.130;6.780;2023-01-15T08:55:14;8.40;99.90
23452;DHT22;11898;51.130;6.780;2023-01-15T08:57:43;8.40;99.90
23452;DHT22;11898;51.130;6.780;2023-01-15T09:00:12;8.50;99.90
23452;DHT22;11898;51.130;6.780;2023-01-15T09:02:42;8.40;99.90
23452;DHT22;11898;51.130;6.780;2023-01-15T09:05:11;8.30;99.90
23452;DHT22;11898;51.130;6.780;2023-01-15T09:07:40;8.30;99.90
23452;DHT22;11898;51.130;6.780;2023-01-15T09:10:09;8.30;99.90
23452;DHT22;11898;51.130;6.780;2023-01-15T09:12:37;8.30;99.90
23452;DHT22;11898;51.130;6.780;2023-01-15T09:15:06;8.20;99.90
23452;DHT22;11898;51.130;6.780;2023-01-15T09:17:35;8.20;99.90
23452;DHT22;11898;51.130;6.780;2023-01-15T09:20:08;8.10;99.90
23452;DHT22;11898;51.130;6.780;2023-01-15T09:22:37;8.10;99.90
23452;DHT22;11898;51.130;6.780;2023-01-15T09:25:07;8.10;99.90
23452;DHT22;11898;51.130;6.780;2023-01-15T09:27:35;8.00;99.90
23452;DHT22;11898;51.130;6.780;2023-01-15T09:30:04;8.00;99.90
23452;DHT22;11898;51.130;6.780;2023-01-15T09:32:33;7.90;99.90
23452;DHT22;11898;51.130;6.780;2023-01-15T13:13:23;8.10;99.90
23452;DHT22;11898;51.130;6.780;2023-01-15T13:16:11;14.30;99.90
23452;DHT22;11898;51.130;6.780;2023-01-15T13:18:55;13.90;99.90
23452;DHT22;11898;51.130;6.780;2023-01-15T13:21:23;14.10;99.90
23452;DHT22;11898;51.130;6.780;2023-01-15T14:36:38;10.60;99.90
23452;DHT22;11898;51.130;6.780;2023-01-15T14:39:20;10.50;99.90
23452;DHT22;11898;51.130;6.780;2023-01-15T14:41:39;10.40;99.90
23452;DHT22;11898;51.130;6.780;2023-01-15T14:44:28;10.40;99.90
23452;DHT22;11898;51.130;6.780;2023-01-15T14:46:58;10.30;99.90
23452;DHT22;11898;51.130;6.780;2023-01-15T14:49:44;10.30;99.90
23452;DHT22;11898;51.130;6.780;2023-01-15T14:52:03;10.20;99.90
23452;DHT22;11898;51.130;6.780;2023-01-15T14:54:32;10.20;99.90
23452;DHT22;11898;51.130;6.780;2023-01-15T14:57:05;10.20;99.90
23452;DHT22;11898;51.130;6.780;2023-01-15T14:59:40;10.20;99.90
23452;DHT22;11898;51.130;6.780;2023-01-15T15:07:26;10.10;99.90
23452;DHT22;11898;51.130;6.780;2023-01-15T15:10:03;10.00;99.90
23452;DHT22;11898;51.130;6.780;2023-01-15T15:15:20;10.00;99.90
23452;DHT22;11898;51.130;6.780;2023-01-15T15:17:58;9.80;99.90
23452;DHT22;11898;51.130;6.780;2023-01-15T15:20:30;10.10;99.90
23452;DHT22;11898;51.130;6.780;2023-01-15T15:23:04;10.00;99.90
23452;DHT22;11898;51.130;6.780;2023-01-15T15:25:35;9.90;99.90
23452;DHT22;11898;51.130;6.780;2023-01-15T15:28:10;9.80;99.90
23452;DHT22;11898;51.130;6.780;2023-01-15T15:30:42;9.70;99.90
23452;DHT22;11898;51.130;6.780;2023-01-15T15:33:24;9.70;99.90
23452;DHT22;11898;51.130;6.780;2023-01-15T15:35:53;9.70;99.90
23452;DHT22;11898;51.130;6.780;2023-01-15T15:38:24;9.60;99.90
23452;DHT22;11898;51.130;6.780;2023-01-15T15:40:55;9.60;99.90
23452;DHT22;11898;51.130;6.780;2023-01-15T15:46:29;9.60;99.90
23452;DHT22;11898;51.130;6.780;2023-01-15T15:49:16;9.40;99.90
23452;DHT22;11898;51.130;6.780;2023-01-15T15:51:52;9.30;99.90
23452;DHT22;11898;51.130;6.780;2023-01-15T15:54:23;9.30;99.90
23452;DHT22;11898;51.130;6.780;2023-01-15T15:57:02;9.20;99.90
23452;DHT22;11898;51.130;6.780;2023-01-15T15:59:38;9.10;99.90
23452;DHT22;11898;51.130;6.780;2023-01-15T16:05:00;9.10;99.90
23452;DHT22;11898;51.130;6.780;2023-01-15T16:07:31;9.10;99.90
23452;DHT22;11898;51.130;6.780;2023-01-15T16:10:15;9.00;99.90
23452;DHT22;11898;51.130;6.780;2023-01-15T16:12:49;9.20;99.90
23452;DHT22;11898;51.130;6.780;2023-01-15T16:15:21;9.20;99.90
23452;DHT22;11898;51.130;6.780;2023-01-15T16:17:50;9.20;99.90
23452;DHT22;11898;51.130;6.780;2023-01-15T16:20:19;10.10;99.90
23452;DHT22;11898;51.130;6.780;2023-01-15T16:22:52;8.70;99.90
23452;DHT22;11898;51.130;6.780;2023-01-15T16:25:25;9.20;99.90
23452;DHT22;11898;51.130;6.780;2023-01-15T16:27:55;9.20;99.90
23452;DHT22;11898;51.130;6.780;2023-01-15T16:30:24;9.20;99.90
23452;DHT22;11898;51.130;6.780;2023-01-15T16:32:53;9.20;99.90
23452;DHT22;11898;51.130;6.780;2023-01-15T16:35:24;9.30;99.90
23452;DHT22;11898;51.130;6.780;2023-01-15T16:37:55;9.20;99.90
23452;DHT22;11898;51.130;6.780;2023-01-15T16:40:30;9.20;99.90
23452;DHT22;11898;51.130;6.780;2023-01-15T16:43:14;9.30;99.90
23452;DHT22;11898;51.130;6.780;2023-01-15T16:46:03;9.20;99.90
23452;DHT22;11898;51.130;6.780;2023-01-15T16:48:36;9.50;99.90
23452;DHT22;11898;51.130;6.780;2023-01-15T16:53:54;9.30;99.90
23452;DHT22;11898;51.130;6.780;2023-01-15T16:56:25;9.20;99.90
23452;DHT22;11898;51.130;6.780;2023-01-15T16:58:54;9.20;99.90
23452;DHT22;11898;51.130;6.780;2023-01-15T17:01:40;9.20;99.90
23452;DHT22;11898;51.130;6.780;2023-01-15T17:07:05;9.10;99.90
23452;DHT22;11898;51.130;6.780;2023-01-15T17:09:35;9.20;99.90
23452;DHT22;11898;51.130;6.780;2023-01-15T17:14:59;9.30;99.90
23452;DHT22;11898;51.130;6.780;2023-01-15T17:17:28;9.20;99.90
23452;DHT22;11898;51.130;6.780;2023-01-15T17:19:56;9.20;99.90
23452;DHT22;11898;51.130;6.780;2023-01-15T17:22:28;9.20;99.90
23452;DHT22;11898;51.130;6.780;2023-01-15T17:24:59;9.20;99.90
23452;DHT22;11898;51.130;6.780;2023-01-15T17:27:29;9.10;99.90
23452;DHT22;11898;51.130;6.780;2023-01-15T17:29:57;9.10;99.90
23452;DHT22;11898;51.130;6.780;2023-01-15T17:32:31;9.10;99.90
23452;DHT22;11898;51.130;6.780;2023-01-15T17:35:03;9.00;99.90
23452;DHT22;11898;51.130;6.780;2023-01-15T17:37:31;9.00;99.90
23452;DHT22;11898;51.130;6.780;2023-01-15T17:40:00;8.90;99.90
23452;DHT22;11898;51.130;6.780;2023-01-15T17:42:30;8.90;99.90
23452;DHT22;11898;51.130;6.780;2023-01-15T17:44:59;8.80;99.90
23452;DHT22;11898;51.130;6.780;2023-01-15T17:47:27;8.80;99.90
23452;DHT22;11898;51.130;6.780;2023-01-15T17:49:56;8.30;99.90
23452;DHT22;11898;51.130;6.780;2023-01-15T17:52:24;8.70;99.90
23452;DHT22;11898;51.130;6.780;2023-01-15T17:54:53;8.70;99.90
23452;DHT22;11898;51.130;6.780;2023-01-15T17:57:40;8.60;99.90
23452;DHT22;11898;51.130;6.780;2023-01-15T18:00:26;8.60;99.90
23452;DHT22;11898;51.130;6.780;2023-01-15T18:03:16;8.60;99.90
23452;DHT22;11898;51.130;6.780;2023-01-15T18:06:04;8.50;99.90
23452;DHT22;11898;51.130;6.780;2023-01-15T18:08:33;8.50;99.90
23452;DHT22;11898;51.130;6.780;2023-01-15T18:11:03;8.50;99.90
23452;DHT22;11898;51.130;6.780;2023-01-15T18:13:32;8.50;99.90
23452;DHT22;11898;51.130;6.780;2023-01-15T18:16:01;8.50;99.90
23452;DHT22;11898;51.130;6.780;2023-01-15T18:18:31;8.50;99.90
23452;DHT22;11898;51.130;6.780;2023-01-15T18:21:01;8.50;99.90
23452;DHT22;11898;51.130;6.780;2023-01-15T18:23:30;8.50;99.90
23452;DHT22;11898;51.130;6.780;2023-01-15T18:26:06;8.50;99.90
23452;DHT22;11898;51.130;6.780;2023-01-15T18:31:06;8.60;99.90
23452;DHT22;11898;51.130;6.780;2023-01-15T18:33:34;8.60;99.90
23452;DHT22;11898;51.130;6.780;2023-01-15T18:36:09;8.50;99.90
23452;DHT22;11898;51.130;6.780;2023-01-15T18:38:39;8.60;99.90
23452;DHT22;11898;51.130;6.780;2023-01-15T18:44:03;8.60;99.90
23452;DHT22;11898;51.130;6.780;2023-01-15T18:46:52;8.60;99.90
23452;DHT22;11898;51.130;6.780;2023-01-15T18:49:21;8.50;99.90
23452;DHT22;11898;51.130;6.780;2023-01-15T18:51:50;8.10;99.90
23452;DHT22;11898;51.130;6.780;2023-01-15T18:54:20;8.40;99.90
23452;DHT22;11898;51.130;6.780;2023-01-15T18:56:48;8.40;99.90
23452;DHT22;11898;51.130;6.780;2023-01-15T18:59:18;8.40;99.90
23452;DHT22;11898;51.130;6.780;2023-01-15T19:01:47;8.40;99.90
23452;DHT22;11898;51.130;6.780;2023-01-15T19:04:16;8.30;99.90
23452;DHT22;11898;51.130;6.780;2023-01-15T19:06:47;8.30;99.90
23452;DHT22;11898;51.130;6.780;2023-01-15T19:09:16;8.20;99.90
23452;DHT22;11898;51.130;6.780;2023-01-15T19:11:46;8.30;99.90
23452;DHT22;11898;51.130;6.780;2023-01-15T19:14:15;8.50;99.90
23452;DHT22;11898;51.130;6.780;2023-01-15T19:17:02;8.30;99.90
23452;DHT22;11898;51.130;6.780;2023-01-15T19:19:48;7.00;99.90
23452;DHT22;11898;51.130;6.780;2023-01-15T19:22:17;8.30;99.90
23452;DHT22;11898;51.130;6.780;2023-01-15T19:25:04;8.20;99.90
23452;DHT22;11898;51.130;6.780;2023-01-15T19:27:33;8.30;99.90
23452;DHT22;11898;51.130;6.780;2023-01-15T19:30:01;8.30;99.90
23452;DHT22;11898;51.130;6.780;2023-01-15T19:32:32;8.20;99.90
23452;DHT22;11898;51.130;6.780;2023-01-15T19:35:01;8.30;99.90
23452;DHT22;11898;51.130;6.780;2023-01-15T19:37:31;8.30;99.90
23452;DHT22;11898;51.130;6.780;2023-01-15T19:40:02;8.30;99.90
23452;DHT22;11898;51.130;6.780;2023-01-15T19:42:31;8.30;99.90
23452;DHT22;11898;51.130;6.780;2023-01-15T19:45:18;8.30;99.90
23452;DHT22;11898;51.130;6.780;2023-01-15T19:48:08;8.40;99.90
23452;DHT22;11898;51.130;6.780;2023-01-15T19:50:54;8.40;99.90
23452;DHT22;11898;51.130;6.780;2023-01-15T19:53:22;8.40;99.90
23452;DHT22;11898;51.130;6.780;2023-01-15T19:55:52;8.50;99.90
23452;DHT22;11898;51.130;6.780;2023-01-15T19:58:20;8.40;99.90
23452;DHT22;11898;51.130;6.780;2023-01-15T20:00:49;8.50;99.90
23452;DHT22;11898;51.130;6.780;2023-01-15T20:03:19;8.50;99.90
23452;DHT22;11898;51.130;6.780;2023-01-15T20:05:48;8.60;99.90
23452;DHT22;11898;51.130;6.780;2023-01-15T20:08:17;8.60;99.90
23452;DHT22;11898;51.130;6.780;2023-01-15T20:10:47;8.60;99.90
23452;DHT22;11898;51.130;6.780;2023-01-15T20:13:19;8.50;99.90
23452;DHT22;11898;51.130;6.780;2023-01-15T20:16:12;8.50;99.90
23452;DHT22;11898;51.130;6.780;2023-01-15T20:18:41;8.60;99.90
23452;DHT22;11898;51.130;6.780;2023-01-15T20:21:10;8.50;99.90
23452;DHT22;11898;51.130;6.780;2023-01-15T20:23:43;8.50;99.90
23452;DHT22;11898;51.130;6.780;2023-01-15T20:26:13;8.50;99.90
23452;DHT22;11898;51.130;6.780;2023-01-15T20:28:42;8.50;99.90
23452;DHT22;11898;51.130;6.780;2023-01-15T20:31:16;8.40;99.90
23452;DHT22;11898;51.130;6.780;2023-01-15T20:33:46;8.40;99.90
23452;DHT22;11898;51.130;6.780;2023-01-15T20:36:14;8.40;99.90
23452;DHT22;11898;51.130;6.780;2023-01-15T20:38:43;8.50;99.90
23452;DHT22;11898;51.130;6.780;2023-01-15T20:41:12;8.40;99.90
23452;DHT22;11898;51.130;6.780;2023-01-15T20:43:58;8.40;99.90
23452;DHT22;11898;51.130;6.780;2023-01-15T20:46:44;8.40;99.90
23452;DHT22;11898;51.130;6.780;2023-01-15T20:49:13;8.30;99.90
23452;DHT22;11898;51.130;6.780;2023-01-15T20:51:55;8.30;99.90
23452;DHT22;11898;51.130;6.780;2023-01-15T20:54:25;8.30;99.90
23452;DHT22;11898;51.130;6.780;2023-01-15T20:56:54;8.30;99.90
23452;DHT22;11898;51.130;6.780;2023-01-15T20:59:22;8.40;99.90
23452;DHT22;11898;51.130;6.780;2023-01-15T21:01:51;8.40;99.90
23452;DHT22;11898;51.130;6.780;2023-01-15T21:04:21;8.30;99.90
23452;DHT22;11898;51.130;6.780;2023-01-15T21:06:50;8.40;99.90
23452;DHT22;11898;51.130;6.780;2023-01-15T21:09:20;8.40;99.90
23452;DHT22;11898;51.130;6.780;2023-01-15T21:11:49;8.40;99.90
23452;DHT22;11898;51.130;6.780;2023-01-15T21:14:18;8.40;99.90
23452;DHT22;11898;51.130;6.780;2023-01-15T21:16:47;8.40;99.90
23452;DHT22;11898;51.130;6.780;2023-01-15T21:19:17;8.30;99.90
23452;DHT22;11898;51.130;6.780;2023-01-15T21:21:47;8.20;99.90
23452;DHT22;11898;51.130;6.780;2023-01-15T21:24:16;8.00;99.90
23452;DHT22;11898;51.130;6.780;2023-01-15T21:26:44;7.90;99.90
23452;DHT22;11898;51.130;6.780;2023-01-15T21:29:15;7.70;99.90
23452;DHT22;11898;51.130;6.780;2023-01-15T21:31:44;7.60;99.90
23452;DHT22;11898;51.130;6.780;2023-01-15T21:34:12;7.50;99.90
23452;DHT22;11898;51.130;6.780;2023-01-15T21:36:41;7.40;99.90
23452;DHT22;11898;51.130;6.780;2023-01-15T21:39:12;7.30;99.90
23452;DHT22;11898;51.130;6.780;2023-01-15T21:41:41;7.30;99.90
23452;DHT22;11898;51.130;6.780;2023-01-15T21:44:28;7.20;99.90
23452;DHT22;11898;51.130;6.780;2023-01-15T21:47:14;7.10;99.90
23452;DHT22;11898;51.130;6.780;2023-01-15T21:49:40;6.90;99.90
23452;DHT22;11898;51.130;6.780;2023-01-15T21:52:14;7.10;99.90
23452;DHT22;11898;51.130;6.780;2023-01-15T21:54:44;6.90;99.90
23452;DHT22;11898;51.130;6.780;2023-01-15T21:57:13;7.10;99.90
23452;DHT22;11898;51.130;6.780;2023-01-15T21:59:42;7.10;99.90
23452;DHT22;11898;51.130;6.780;2023-01-15T22:02:12;7.00;99.90
23452;DHT22;11898;51.130;6.780;2023-01-15T22:04:42;7.00;99.90
23452;DHT22;11898;51.130;6.780;2023-01-15T22:07:11;7.10;99.90
23452;DHT22;11898;51.130;6.780;2023-01-15T22:09:40;7.00;99.90
23452;DHT22;11898;51.130;6.780;2023-01-15T22:12:08;7.10;99.90
23452;DHT22;11898;51.130;6.780;2023-01-15T22:14:37;7.10;99.90
23452;DHT22;11898;51.130;6.780;2023-01-15T22:17:06;6.90;99.90
23452;DHT22;11898;51.130;6.780;2023-01-15T22:19:35;7.00;99.90
23452;DHT22;11898;51.130;6.780;2023-01-15T22:22:06;7.00;99.90
23452;DHT22;11898;51.130;6.780;2023-01-15T22:24:36;7.90;99.90
23452;DHT22;11898;51.130;6.780;2023-01-15T22:27:07;7.00;99.90
23452;DHT22;11898;51.130;6.780;2023-01-15T22:29:38;7.10;99.90
23452;DHT22;11898;51.130;6.780;2023-01-15T22:32:09;7.10;99.90
23452;DHT22;11898;51.130;6.780;2023-01-15T22:34:38;7.00;99.90
23452;DHT22;11898;51.130;6.780;2023-01-15T22:37:07;7.10;99.90
23452;DHT22;11898;51.130;6.780;2023-01-15T22:39:36;7.10;99.90
23452;DHT22;11898;51.130;6.780;2023-01-15T22:42:05;7.10;99.90
23452;DHT22;11898;51.130;6.780;2023-01-15T22:44:52;7.20;99.90
23452;DHT22;11898;51.130;6.780;2023-01-15T22:47:20;7.20;99.90
23452;DHT22;11898;51.130;6.780;2023-01-15T22:49:50;7.40;99.90
23452;DHT22;11898;51.130;6.780;2023-01-15T22:52:19;7.10;99.90
23452;DHT22;11898;51.130;6.780;2023-01-15T22:54:49;7.10;99.90
23452;DHT22;11898;51.130;6.780;2023-01-15T22:57:19;7.20;99.90
23452;DHT22;11898;51.130;6.780;2023-01-15T22:59:48;7.20;99.90
23452;DHT22;11898;51.130;6.780;2023-01-15T23:02:19;7.30;99.90
23452;DHT22;11898;51.130;6.780;2023-01-15T23:04:50;7.40;99.90
23452;DHT22;11898;51.130;6.780;2023-01-15T23:07:18;7.40;99.90
23452;DHT22;11898;51.130;6.780;2023-01-15T23:09:49;7.40;99.90
23452;DHT22;11898;51.130;6.780;2023-01-15T23:12:17;7.50;99.90
23452;DHT22;11898;51.130;6.780;2023-01-15T23:14:48;7.50;99.90
23452;DHT22;11898;51.130;6.780;2023-01-15T23:17:17;7.60;99.90
23452;DHT22;11898;51.130;6.780;2023-01-15T23:19:45;7.50;99.90
23452;DHT22;11898;51.130;6.780;2023-01-15T23:22:14;7.50;99.90
23452;DHT22;11898;51.130;6.780;2023-01-15T23:24:43;7.50;99.90
23452;DHT22;11898;51.130;6.780;2023-01-15T23:27:11;7.50;99.90
23452;DHT22;11898;51.130;6.780;2023-01-15T23:29:40;7.60;99.90
23452;DHT22;11898;51.130;6.780;2023-01-15T23:32:09;7.50;99.90
23452;DHT22;11898;51.130;6.780;2023-01-15T23:34:37;7.50;99.90
23452;DHT22;11898;51.130;6.780;2023-01-15T23:37:06;7.60;99.90
23452;DHT22;11898;51.130;6.780;2023-01-15T23:39:34;7.60;99.90
23452;DHT22;11898;51.130;6.780;2023-01-15T23:42:03;7.70;99.90
23452;DHT22;11898;51.130;6.780;2023-01-15T23:44:49;7.70;99.90
23452;DHT22;11898;51.130;6.780;2023-01-15T23:47:35;7.80;99.90
23452;DHT22;11898;51.130;6.780;2023-01-15T23:50:04;7.90;99.90
23452;DHT22;11898;51.130;6.780;2023-01-15T23:52:32;7.80;99.90
23452;DHT22;11898;51.130;6.780;2023-01-15T23:55:01;7.90;99.90
23452;DHT22;11898;51.130;6.780;2023-01-15T23:57:29;7.90;99.90
23452;DHT22;11898;51.130;6.780;2023-01-15T23:59:58;7.90;99.90
